Spirit of New Zealand — ZMSV — position and weather

sailwx.info

Track history (hours):
 
Tides and Currents Weather Stations Pressure Air Temp Water Temp Dewpoint Dewpoint Depression Visibility Wind Speed Wind Dir Waves Ship Positions

Spirit of New Zealand

Last reported at 2019-Feb-17 16:29 UTC. Time now 2019-Feb-17 16:41 UTC.
Position S 41°04' E 173°42'.

Length 37 m; draft 4.1 m.

Type: Passenger vessel. MMSI: 512201000.

Date/timePositionNaut miles runAvg speedWind from/ knotsBaromVisibWave heightAir tempDewpointWater temp
2019-Feb-17 16:29S 41°04' E 173°42'0 0.0
2019-Feb-17 15:59S 41°04' E 173°42'0 0.0
2019-Feb-17 15:29S 41°04' E 173°42'0 0.0
2019-Feb-17 14:59S 41°04' E 173°42'0 0.0
2019-Feb-17 14:26S 41°04' E 173°42'0 0.0
2019-Feb-17 13:59S 41°04' E 173°42'0 0.0
2019-Feb-17 12:59S 41°04' E 173°42'0 0.0
2019-Feb-17 12:08S 41°04' E 173°42'0 0.0
2019-Feb-17 11:59S 41°04' E 173°42'0 0.0
2019-Feb-17 11:02S 41°04' E 173°42'0 0.0
2019-Feb-17 10:47S 41°04' E 173°42'0 0.0
2019-Feb-17 10:29S 41°04' E 173°42'0 0.0
2019-Feb-17 09:59S 41°04' E 173°42'0 0.0
2019-Feb-17 09:20S 41°04' E 173°42'0 0.1
2019-Feb-17 08:59S 41°04' E 173°42'0 0.0
2019-Feb-17 08:29S 41°04' E 173°42'0 0.0
2019-Feb-17 07:53S 41°04' E 173°42'0 0.0
2019-Feb-17 07:29S 41°04' E 173°42'0 0.0
2019-Feb-17 06:59S 41°04' E 173°42'0 0.0
2019-Feb-17 06:29S 41°04' E 173°42'0 0.1
2019-Feb-17 05:53S 41°04' E 173°42'0 0.0
2019-Feb-17 05:23S 41°04' E 173°42'0 0.0
2019-Feb-17 04:59S 41°04' E 173°42'0 0.0
2019-Feb-17 04:17S 41°04' E 173°42'0 0.0
2019-Feb-17 03:53S 41°04' E 173°42'0 0.0
2019-Feb-17 03:26S 41°04' E 173°42'0 0.0
2019-Feb-17 02:59S 41°04' E 173°42'5 4.7
2019-Feb-17 01:52S 41°02' E 173°36'2 5.8
2019-Feb-17 01:29S 41°02' E 173°33'8 6.3
2019-Feb-17 00:11S 41°03' E 173°22'2 6.1
2019-Feb-16 23:53S 41°03' E 173°19'2 5.8
2019-Feb-16 23:30S 41°04' E 173°17'2 3.2
2019-Feb-16 22:52S 41°05' E 173°18'7 6.8
2019-Feb-16 21:52S 41°12' E 173°16'2 0.0
2019-Feb-14 22:01S 41°11' E 173°14'10 6.6
2019-Feb-14 20:30S 41°02' E 173°11'6 8.7
2019-Feb-14 19:51S 40°58' E 173°05'1 2.5
2019-Feb-14 19:29S 40°58' E 173°04'0 0.0
2019-Feb-14 18:59S 40°58' E 173°04'0 0.0
2019-Feb-14 18:26S 40°58' E 173°04'0 0.0
2019-Feb-14 17:59S 40°58' E 173°04'0 0.0
2019-Feb-14 17:23S 40°58' E 173°04'0 0.0
2019-Feb-14 16:20S 40°58' E 173°04'0 0.0
2019-Feb-14 15:50S 40°58' E 173°04'0 0.0
2019-Feb-14 15:29S 40°58' E 173°04'0 0.0
2019-Feb-14 14:56S 40°58' E 173°04'0 0.0
2019-Feb-14 13:47S 40°58' E 173°04'0 0.0
2019-Feb-14 13:29S 40°58' E 173°04'0 0.0
2019-Feb-14 12:50S 40°58' E 173°04'0 0.0
2019-Feb-14 11:41S 40°58' E 173°04'0 0.0
2019-Feb-14 11:26S 40°58' E 173°04'0 0.0
2019-Feb-14 10:29S 40°58' E 173°04'0 0.0
2019-Feb-14 09:56S 40°58' E 173°04'0 0.0
2019-Feb-14 09:23S 40°58' E 173°04'0 0.0
2019-Feb-14 08:59S 40°58' E 173°04'0 0.0
2019-Feb-14 08:23S 40°58' E 173°04'0 0.0
2019-Feb-14 07:47S 40°58' E 173°04'0 0.0
2019-Feb-14 06:56S 40°58' E 173°04'0 0.0
2019-Feb-14 06:11S 40°58' E 173°04'0 0.0
2019-Feb-14 05:59S 40°58' E 173°04'0 0.1
2019-Feb-14 05:26S 40°58' E 173°04'0 0.0
2019-Feb-14 04:08S 40°58' E 173°04'0 0.1
2019-Feb-14 02:56S 40°58' E 173°03'0 0.0
2019-Feb-14 02:29S 40°58' E 173°03'0 0.0
2019-Feb-14 01:59S 40°58' E 173°03'0 0.0
2019-Feb-14 01:29S 40°58' E 173°03'0 0.0
2019-Feb-14 00:59S 40°58' E 173°03'0 0.0
2019-Feb-14 00:29S 40°58' E 173°03'0 0.0
2019-Feb-13 23:59S 40°58' E 173°03'0 0.0
2019-Feb-13 23:29S 40°58' E 173°03'0 0.0
2019-Feb-13 22:59S 40°58' E 173°03'0 0.1
2019-Feb-13 22:30S 40°58' E 173°04'1 0.2
2019-Feb-13 15:47S 40°57' E 173°04'0 0.0
2019-Feb-13 03:29S 40°57' E 173°04'4 4.5
2019-Feb-13 02:29S 40°56' E 173°09'5 3.1
2019-Feb-13 00:48S 40°53' E 173°03'0 0.1
2019-Feb-13 00:03S 40°53' E 173°03'0 0.2
2019-Feb-12 23:48S 40°53' E 173°03'0 0.1
2019-Feb-12 23:24S 40°53' E 173°03'0 0.1
2019-Feb-12 23:00S 40°53' E 173°03'0 0.0
2019-Feb-12 22:30S 40°53' E 173°03'0 0.0
2019-Feb-12 21:27S 40°53' E 173°03'1 0.1
2019-Feb-12 02:02S 40°52' E 173°04'0 5.7
2019-Feb-12 01:57S 40°52' E 173°04'0 0.1
2019-Feb-12 00:41S 40°52' E 173°04'0 0.0
2019-Feb-12 00:05S 40°52' E 173°04'0 0.0
2019-Feb-11 23:56S 40°52' E 173°04'0 0.1
2019-Feb-11 23:00S 40°52' E 173°04'4 6.0
2019-Feb-11 22:21S 40°56' E 173°06'2 6.3
2019-Feb-11 21:59S 40°58' E 173°04'1 1.3
2019-Feb-11 21:30S 40°58' E 173°04'0 0.0
2019-Feb-11 21:00S 40°58' E 173°04'0 0.0
2019-Feb-11 20:30S 40°58' E 173°04'0 0.1
2019-Feb-11 20:00S 40°58' E 173°04'0 0.1
2019-Feb-11 19:30S 40°58' E 173°04'0 0.0
2019-Feb-11 18:54S 40°58' E 173°04'0 0.0
2019-Feb-11 18:00S 40°58' E 173°04'0 0.0
2019-Feb-11 17:24S 40°58' E 173°04'0 0.0
2019-Feb-11 16:54S 40°58' E 173°04'0 0.0
2019-Feb-11 16:27S 40°58' E 173°04'0 0.0
2019-Feb-11 15:33S 40°58' E 173°04'0 0.0
2019-Feb-11 15:30S 40°58' E 173°04'0 0.0
2019-Feb-11 14:57S 40°58' E 173°04'0 0.0
2019-Feb-11 14:27S 40°58' E 173°04'0 0.0
2019-Feb-11 14:00S 40°58' E 173°04'0 0.0
2019-Feb-11 13:21S 40°58' E 173°04'0 0.0
2019-Feb-11 12:48S 40°58' E 173°04'0 0.0
2019-Feb-11 12:12S 40°58' E 173°04'0 0.0
2019-Feb-11 12:00S 40°58' E 173°04'0 0.0
2019-Feb-11 11:30S 40°58' E 173°04'0 0.1
2019-Feb-11 11:00S 40°58' E 173°04'0 0.1
2019-Feb-11 10:30S 40°58' E 173°04'0 0.0
2019-Feb-11 09:54S 40°58' E 173°04'0 0.0
2019-Feb-11 09:30S 40°58' E 173°04'0 0.1
2019-Feb-11 08:48S 40°58' E 173°04'0 0.0
2019-Feb-11 08:27S 40°58' E 173°04'0 0.0
2019-Feb-11 07:57S 40°58' E 173°04'0 0.0
2019-Feb-11 07:30S 40°58' E 173°04'0 0.1
2019-Feb-11 07:00S 40°58' E 173°04'0 0.1
2019-Feb-11 06:15S 40°58' E 173°04'0 0.2
2019-Feb-11 06:00S 40°58' E 173°04'0 0.0
2019-Feb-11 05:30S 40°58' E 173°04'0 0.0
2019-Feb-11 05:00S 40°58' E 173°04'0 0.0
2019-Feb-11 04:30S 40°58' E 173°04'0 0.0
2019-Feb-11 04:00S 40°58' E 173°04'0 0.0
2019-Feb-11 03:30S 40°58' E 173°04'0 0.1
2019-Feb-11 03:00S 40°58' E 173°03'2 3.0
2019-Feb-11 02:24S 40°58' E 173°06'1 2.8
2019-Feb-11 01:53S 40°58' E 173°08'1 3.8
2019-Feb-11 01:30S 40°58' E 173°06'2 3.4
2019-Feb-11 01:00S 40°58' E 173°04'0 0.4
2019-Feb-11 00:29S 40°58' E 173°03'0 0.0
2019-Feb-10 23:59S 40°58' E 173°03'0 0.1
2019-Feb-10 23:29S 40°58' E 173°04'0 0.0
2019-Feb-10 22:59S 40°58' E 173°04'0 0.0
2019-Feb-10 22:29S 40°58' E 173°04'0 0.0
2019-Feb-10 21:57S 40°58' E 173°04'4 8.0
2019-Feb-10 21:30S 40°59' E 173°08'5 8.7
2019-Feb-10 20:59S 41°03' E 173°11'8 9.3
2019-Feb-10 20:05S 41°11' E 173°14'1 9.3
2019-Feb-10 19:59S 41°12' E 173°14'19 0.5
2019-Feb-09 02:30S 41°01' E 173°35'2 2.0
2019-Feb-09 01:30S 40°59' E 173°37'11 3.1
2019-Feb-08 21:59S 40°55' E 173°50'4 7.7
2019-Feb-08 21:30S 40°54' E 173°54'4 8.3
2019-Feb-08 21:00S 40°53' E 173°60'5 9.8
2019-Feb-08 20:30S 40°56' E 174°05'510.4
2019-Feb-08 20:00S 40°56' E 174°12'510.2
2019-Feb-08 19:30S 40°56' E 174°19'4 8.1
2019-Feb-08 19:00S 41°00' E 174°20'5 9.1
2019-Feb-08 18:30S 41°04' E 174°17'3 5.2
2019-Feb-08 18:00S 41°06' E 174°15'0 0.1
2019-Feb-08 17:30S 41°06' E 174°15'0 0.0
2019-Feb-08 17:00S 41°06' E 174°15'0 0.0
2019-Feb-08 16:30S 41°06' E 174°15'0 0.0
2019-Feb-08 16:00S 41°06' E 174°15'0 0.0
2019-Feb-08 15:30S 41°06' E 174°15'0 0.0
2019-Feb-08 15:00S 41°06' E 174°15'0 0.0
2019-Feb-08 14:30S 41°06' E 174°15'0 0.0
2019-Feb-08 14:00S 41°06' E 174°15'0 0.0
2019-Feb-08 13:30S 41°06' E 174°15'0 0.0
2019-Feb-08 13:00S 41°06' E 174°15'0 0.0
2019-Feb-08 12:30S 41°06' E 174°15'0 0.0
2019-Feb-08 12:00S 41°06' E 174°15'0 0.0
2019-Feb-08 11:30S 41°06' E 174°15'0 0.0
2019-Feb-08 11:00S 41°06' E 174°15'0 0.0
2019-Feb-08 10:30S 41°06' E 174°15'0 0.0
2019-Feb-08 10:00S 41°06' E 174°15'0 0.0
2019-Feb-08 09:30S 41°06' E 174°15'0 0.0
2019-Feb-08 09:00S 41°06' E 174°15'0 0.0
2019-Feb-08 08:30S 41°06' E 174°15'0 0.0
2019-Feb-08 08:00S 41°06' E 174°15'0 0.0
2019-Feb-08 07:30S 41°06' E 174°15'0 0.0
2019-Feb-08 07:00S 41°06' E 174°15'0 0.0
2019-Feb-08 06:30S 41°06' E 174°15'0 0.0
2019-Feb-08 06:00S 41°06' E 174°15'0 0.0
2019-Feb-08 05:30S 41°06' E 174°15'0 0.0
2019-Feb-08 05:00S 41°06' E 174°15'0 0.0
2019-Feb-08 04:30S 41°06' E 174°15'0 0.0
2019-Feb-08 04:00S 41°06' E 174°15'0 0.0
2019-Feb-08 03:30S 41°06' E 174°15'0 0.0
2019-Feb-08 02:57S 41°06' E 174°15'0 0.0
2019-Feb-08 02:30S 41°06' E 174°15'0 0.0
2019-Feb-08 02:00S 41°06' E 174°15'0 0.1
2019-Feb-08 01:30S 41°06' E 174°15'0 0.1
2019-Feb-08 01:00S 41°06' E 174°15'1 2.3
2019-Feb-08 00:30S 41°05' E 174°16'4 7.7
2019-Feb-08 00:00S 41°04' E 174°21'4 8.1
2019-Feb-07 23:30S 41°05' E 174°26'4 7.8
2019-Feb-07 23:00S 41°09' E 174°24'5 9.6
2019-Feb-07 22:30S 41°13' E 174°21'3 6.9
2019-Feb-07 22:00S 41°14' E 174°16'2 4.8
2019-Feb-07 21:30S 41°13' E 174°19'5 9.5
2019-Feb-07 21:00S 41°18' E 174°17'5 9.2
2019-Feb-07 20:31S 41°21' E 174°12'4 7.5
2019-Feb-07 20:00S 41°22' E 174°07'2 4.5
2019-Feb-07 19:28S 41°19' E 174°08'0 0.1
2019-Feb-07 18:52S 41°19' E 174°08'0 0.1
2019-Feb-07 18:28S 41°19' E 174°08'0 0.1
2019-Feb-07 17:58S 41°19' E 174°08'0 0.0
2019-Feb-07 17:28S 41°19' E 174°08'0 0.0
2019-Feb-07 16:58S 41°19' E 174°08'  
Track history (hours):
 
Tides and Currents Weather Stations Pressure Air Temp Water Temp Dewpoint Dewpoint Depression Visibility Wind Speed Wind Dir Waves Ship Positions

Spirit of New Zealand

Last reported at 2019-Feb-17 16:29 UTC. Time now 2019-Feb-17 16:41 UTC.
Position S 41°04' E 173°42'.

Length 37 m; draft 4.1 m.

Type: Passenger vessel. MMSI: 512201000.

Date/timePositionNaut miles runAvg speedWind from/ knotsBaromVisibWave heightAir tempDewpointWater temp
2019-Feb-17 16:29S 41°04' E 173°42'0 0.0
2019-Feb-17 15:59S 41°04' E 173°42'0 0.0
2019-Feb-17 15:29S 41°04' E 173°42'0 0.0
2019-Feb-17 14:59S 41°04' E 173°42'0 0.0
2019-Feb-17 14:26S 41°04' E 173°42'0 0.0
2019-Feb-17 13:59S 41°04' E 173°42'0 0.0
2019-Feb-17 12:59S 41°04' E 173°42'0 0.0
2019-Feb-17 12:08S 41°04' E 173°42'0 0.0
2019-Feb-17 11:59S 41°04' E 173°42'0 0.0
2019-Feb-17 11:02S 41°04' E 173°42'0 0.0
2019-Feb-17 10:47S 41°04' E 173°42'0 0.0
2019-Feb-17 10:29S 41°04' E 173°42'0 0.0
2019-Feb-17 09:59S 41°04' E 173°42'0 0.0
2019-Feb-17 09:20S 41°04' E 173°42'0 0.1
2019-Feb-17 08:59S 41°04' E 173°42'0 0.0
2019-Feb-17 08:29S 41°04' E 173°42'0 0.0
2019-Feb-17 07:53S 41°04' E 173°42'0 0.0
2019-Feb-17 07:29S 41°04' E 173°42'0 0.0
2019-Feb-17 06:59S 41°04' E 173°42'0 0.0
2019-Feb-17 06:29S 41°04' E 173°42'0 0.1
2019-Feb-17 05:53S 41°04' E 173°42'0 0.0
2019-Feb-17 05:23S 41°04' E 173°42'0 0.0
2019-Feb-17 04:59S 41°04' E 173°42'0 0.0
2019-Feb-17 04:17S 41°04' E 173°42'0 0.0
2019-Feb-17 03:53S 41°04' E 173°42'0 0.0
2019-Feb-17 03:26S 41°04' E 173°42'0 0.0
2019-Feb-17 02:59S 41°04' E 173°42'5 4.7
2019-Feb-17 01:52S 41°02' E 173°36'2 5.8
2019-Feb-17 01:29S 41°02' E 173°33'8 6.3
2019-Feb-17 00:11S 41°03' E 173°22'2 6.1
2019-Feb-16 23:53S 41°03' E 173°19'2 5.8
2019-Feb-16 23:30S 41°04' E 173°17'2 3.2
2019-Feb-16 22:52S 41°05' E 173°18'7 6.8
2019-Feb-16 21:52S 41°12' E 173°16'2 0.0
2019-Feb-14 22:01S 41°11' E 173°14'10 6.6
2019-Feb-14 20:30S 41°02' E 173°11'6 8.7
2019-Feb-14 19:51S 40°58' E 173°05'1 2.5
2019-Feb-14 19:29S 40°58' E 173°04'0 0.0
2019-Feb-14 18:59S 40°58' E 173°04'0 0.0
2019-Feb-14 18:26S 40°58' E 173°04'0 0.0
2019-Feb-14 17:59S 40°58' E 173°04'0 0.0
2019-Feb-14 17:23S 40°58' E 173°04'0 0.0
2019-Feb-14 16:20S 40°58' E 173°04'0 0.0
2019-Feb-14 15:50S 40°58' E 173°04'0 0.0
2019-Feb-14 15:29S 40°58' E 173°04'0 0.0
2019-Feb-14 14:56S 40°58' E 173°04'0 0.0
2019-Feb-14 13:47S 40°58' E 173°04'0 0.0
2019-Feb-14 13:29S 40°58' E 173°04'0 0.0
2019-Feb-14 12:50S 40°58' E 173°04'0 0.0
2019-Feb-14 11:41S 40°58' E 173°04'0 0.0
2019-Feb-14 11:26S 40°58' E 173°04'0 0.0
2019-Feb-14 10:29S 40°58' E 173°04'0 0.0
2019-Feb-14 09:56S 40°58' E 173°04'0 0.0
2019-Feb-14 09:23S 40°58' E 173°04'0 0.0
2019-Feb-14 08:59S 40°58' E 173°04'0 0.0
2019-Feb-14 08:23S 40°58' E 173°04'0 0.0
2019-Feb-14 07:47S 40°58' E 173°04'0 0.0
2019-Feb-14 06:56S 40°58' E 173°04'0 0.0
2019-Feb-14 06:11S 40°58' E 173°04'0 0.0
2019-Feb-14 05:59S 40°58' E 173°04'0 0.1
2019-Feb-14 05:26S 40°58' E 173°04'0 0.0
2019-Feb-14 04:08S 40°58' E 173°04'0 0.1
2019-Feb-14 02:56S 40°58' E 173°03'0 0.0
2019-Feb-14 02:29S 40°58' E 173°03'0 0.0
2019-Feb-14 01:59S 40°58' E 173°03'0 0.0
2019-Feb-14 01:29S 40°58' E 173°03'0 0.0
2019-Feb-14 00:59S 40°58' E 173°03'0 0.0
2019-Feb-14 00:29S 40°58' E 173°03'0 0.0
2019-Feb-13 23:59S 40°58' E 173°03'0 0.0
2019-Feb-13 23:29S 40°58' E 173°03'0 0.0
2019-Feb-13 22:59S 40°58' E 173°03'0 0.1
2019-Feb-13 22:30S 40°58' E 173°04'1 0.2
2019-Feb-13 15:47S 40°57' E 173°04'0 0.0
2019-Feb-13 03:29S 40°57' E 173°04'4 4.5
2019-Feb-13 02:29S 40°56' E 173°09'5 3.1
2019-Feb-13 00:48S 40°53' E 173°03'0 0.1
2019-Feb-13 00:03S 40°53' E 173°03'0 0.2
2019-Feb-12 23:48S 40°53' E 173°03'0 0.1
2019-Feb-12 23:24S 40°53' E 173°03'0 0.1
2019-Feb-12 23:00S 40°53' E 173°03'0 0.0
2019-Feb-12 22:30S 40°53' E 173°03'0 0.0
2019-Feb-12 21:27S 40°53' E 173°03'1 0.1
2019-Feb-12 02:02S 40°52' E 173°04'0 5.7
2019-Feb-12 01:57S 40°52' E 173°04'0 0.1
2019-Feb-12 00:41S 40°52' E 173°04'0 0.0
2019-Feb-12 00:05S 40°52' E 173°04'0 0.0
2019-Feb-11 23:56S 40°52' E 173°04'0 0.1
2019-Feb-11 23:00S 40°52' E 173°04'4 6.0
2019-Feb-11 22:21S 40°56' E 173°06'2 6.3
2019-Feb-11 21:59S 40°58' E 173°04'1 1.3
2019-Feb-11 21:30S 40°58' E 173°04'0 0.0
2019-Feb-11 21:00S 40°58' E 173°04'0 0.0
2019-Feb-11 20:30S 40°58' E 173°04'0 0.1
2019-Feb-11 20:00S 40°58' E 173°04'0 0.1
2019-Feb-11 19:30S 40°58' E 173°04'0 0.0
2019-Feb-11 18:54S 40°58' E 173°04'0 0.0
2019-Feb-11 18:00S 40°58' E 173°04'0 0.0
2019-Feb-11 17:24S 40°58' E 173°04'0 0.0
2019-Feb-11 16:54S 40°58' E 173°04'0 0.0
2019-Feb-11 16:27S 40°58' E 173°04'0 0.0
2019-Feb-11 15:33S 40°58' E 173°04'0 0.0
2019-Feb-11 15:30S 40°58' E 173°04'0 0.0
2019-Feb-11 14:57S 40°58' E 173°04'0 0.0
2019-Feb-11 14:27S 40°58' E 173°04'0 0.0
2019-Feb-11 14:00S 40°58' E 173°04'0 0.0
2019-Feb-11 13:21S 40°58' E 173°04'0 0.0
2019-Feb-11 12:48S 40°58' E 173°04'0 0.0
2019-Feb-11 12:12S 40°58' E 173°04'0 0.0
2019-Feb-11 12:00S 40°58' E 173°04'0 0.0
2019-Feb-11 11:30S 40°58' E 173°04'0 0.1
2019-Feb-11 11:00S 40°58' E 173°04'0 0.1
2019-Feb-11 10:30S 40°58' E 173°04'0 0.0
2019-Feb-11 09:54S 40°58' E 173°04'0 0.0
2019-Feb-11 09:30S 40°58' E 173°04'0 0.1
2019-Feb-11 08:48S 40°58' E 173°04'0 0.0
2019-Feb-11 08:27S 40°58' E 173°04'0 0.0
2019-Feb-11 07:57S 40°58' E 173°04'0 0.0
2019-Feb-11 07:30S 40°58' E 173°04'0 0.1
2019-Feb-11 07:00S 40°58' E 173°04'0 0.1
2019-Feb-11 06:15S 40°58' E 173°04'0 0.2
2019-Feb-11 06:00S 40°58' E 173°04'0 0.0
2019-Feb-11 05:30S 40°58' E 173°04'0 0.0
2019-Feb-11 05:00S 40°58' E 173°04'0 0.0
2019-Feb-11 04:30S 40°58' E 173°04'0 0.0
2019-Feb-11 04:00S 40°58' E 173°04'0 0.0
2019-Feb-11 03:30S 40°58' E 173°04'0 0.1
2019-Feb-11 03:00S 40°58' E 173°03'2 3.0
2019-Feb-11 02:24S 40°58' E 173°06'1 2.8
2019-Feb-11 01:53S 40°58' E 173°08'1 3.8
2019-Feb-11 01:30S 40°58' E 173°06'2 3.4
2019-Feb-11 01:00S 40°58' E 173°04'0 0.4
2019-Feb-11 00:29S 40°58' E 173°03'0 0.0
2019-Feb-10 23:59S 40°58' E 173°03'0 0.1
2019-Feb-10 23:29S 40°58' E 173°04'0 0.0
2019-Feb-10 22:59S 40°58' E 173°04'0 0.0
2019-Feb-10 22:29S 40°58' E 173°04'0 0.0
2019-Feb-10 21:57S 40°58' E 173°04'4 8.0
2019-Feb-10 21:30S 40°59' E 173°08'5 8.7
2019-Feb-10 20:59S 41°03' E 173°11'8 9.3
2019-Feb-10 20:05S 41°11' E 173°14'1 9.3
2019-Feb-10 19:59S 41°12' E 173°14'19 0.5
2019-Feb-09 02:30S 41°01' E 173°35'2 2.0
2019-Feb-09 01:30S 40°59' E 173°37'11 3.1
2019-Feb-08 21:59S 40°55' E 173°50'4 7.7
2019-Feb-08 21:30S 40°54' E 173°54'4 8.3
2019-Feb-08 21:00S 40°53' E 173°60'5 9.8
2019-Feb-08 20:30S 40°56' E 174°05'510.4
2019-Feb-08 20:00S 40°56' E 174°12'510.2
2019-Feb-08 19:30S 40°56' E 174°19'4 8.1
2019-Feb-08 19:00S 41°00' E 174°20'5 9.1
2019-Feb-08 18:30S 41°04' E 174°17'3 5.2
2019-Feb-08 18:00S 41°06' E 174°15'0 0.1
2019-Feb-08 17:30S 41°06' E 174°15'0 0.0
2019-Feb-08 17:00S 41°06' E 174°15'0 0.0
2019-Feb-08 16:30S 41°06' E 174°15'0 0.0
2019-Feb-08 16:00S 41°06' E 174°15'0 0.0
2019-Feb-08 15:30S 41°06' E 174°15'0 0.0
2019-Feb-08 15:00S 41°06' E 174°15'0 0.0
2019-Feb-08 14:30S 41°06' E 174°15'0 0.0
2019-Feb-08 14:00S 41°06' E 174°15'0 0.0
2019-Feb-08 13:30S 41°06' E 174°15'0 0.0
2019-Feb-08 13:00S 41°06' E 174°15'0 0.0
2019-Feb-08 12:30S 41°06' E 174°15'0 0.0
2019-Feb-08 12:00S 41°06' E 174°15'0 0.0
2019-Feb-08 11:30S 41°06' E 174°15'0 0.0
2019-Feb-08 11:00S 41°06' E 174°15'0 0.0
2019-Feb-08 10:30S 41°06' E 174°15'0 0.0
2019-Feb-08 10:00S 41°06' E 174°15'0 0.0
2019-Feb-08 09:30S 41°06' E 174°15'0 0.0
2019-Feb-08 09:00S 41°06' E 174°15'0 0.0
2019-Feb-08 08:30S 41°06' E 174°15'0 0.0
2019-Feb-08 08:00S 41°06' E 174°15'0 0.0
2019-Feb-08 07:30S 41°06' E 174°15'0 0.0
2019-Feb-08 07:00S 41°06' E 174°15'0 0.0
2019-Feb-08 06:30S 41°06' E 174°15'0 0.0
2019-Feb-08 06:00S 41°06' E 174°15'0 0.0
2019-Feb-08 05:30S 41°06' E 174°15'0 0.0
2019-Feb-08 05:00S 41°06' E 174°15'0 0.0
2019-Feb-08 04:30S 41°06' E 174°15'0 0.0
2019-Feb-08 04:00S 41°06' E 174°15'0 0.0
2019-Feb-08 03:30S 41°06' E 174°15'0 0.0
2019-Feb-08 02:57S 41°06' E 174°15'0 0.0
2019-Feb-08 02:30S 41°06' E 174°15'0 0.0
2019-Feb-08 02:00S 41°06' E 174°15'0 0.1
2019-Feb-08 01:30S 41°06' E 174°15'0 0.1
2019-Feb-08 01:00S 41°06' E 174°15'1 2.3
2019-Feb-08 00:30S 41°05' E 174°16'4 7.7
2019-Feb-08 00:00S 41°04' E 174°21'4 8.1
2019-Feb-07 23:30S 41°05' E 174°26'4 7.8
2019-Feb-07 23:00S 41°09' E 174°24'5 9.6
2019-Feb-07 22:30S 41°13' E 174°21'3 6.9
2019-Feb-07 22:00S 41°14' E 174°16'2 4.8
2019-Feb-07 21:30S 41°13' E 174°19'5 9.5
2019-Feb-07 21:00S 41°18' E 174°17'5 9.2
2019-Feb-07 20:31S 41°21' E 174°12'4 7.5
2019-Feb-07 20:00S 41°22' E 174°07'2 4.5
2019-Feb-07 19:28S 41°19' E 174°08'0 0.1
2019-Feb-07 18:52S 41°19' E 174°08'0 0.1
2019-Feb-07 18:28S 41°19' E 174°08'0 0.1
2019-Feb-07 17:58S 41°19' E 174°08'0 0.0
2019-Feb-07 17:28S 41°19' E 174°08'0 0.0
2019-Feb-07 16:58S 41°19' E 174°08'  

Dump ship's entire track history